Главная страница
METAR-TAF:

METAR-TAF

Аэропорты :

Саннесшёэн, Норвегия

широта: 65-58N, долгота: 012-28E, высота над уровнем моря: 1 м

Текущие метеонаблюдения

Эта сводка был подготовлена 1 час и 40 минут назад, в 22:20 UTC
Ветер 10 Узел от юго-юго-восточный с порывами до 23 Узел, изменяющийся между восточно-юго-восточный и южный-юго-западный
Температура 1°C
Влажность 55%
Давление 1016 hPa
Видимость 10 км и более
небольшая облачность на высоте 3000 фута

METAR: ENST 162220Z 16010G23KT 110V200 9999 FEW030 01/M07 Q1016 RMK WIND 300FT 15018KT

Время: 01:00 (00:00 UTC)


TAF: отсутствует

Метеонаблюдения и прогнозы для более 4000 аэропортов (сводки METAR и TAF).

Имеющиеся станции представлены на карте желтыми и красными точками.

Чтобы увидеть название станции, наведите на нее мышь.

Затем щелкните, чтобы увидеть метеонаблюдения и метеопрогнозы.

Управление картой: чтобы увеличить масштаб, щелкните зеленые кнопки с черным крестиком; чтобы уменьшить масштаб, щелкните зеленую кнопку с тире; для просмотра соседних карт щелкайте зеленые стрелки.


METAR-TAF: